CSD3 weather

Valleyfield Airport
Valleyfield, Quebec, Canada

Public forecast

Using degrees Celsius for public forecast. Weather courtesy of forecast.io.

METAR (pilot weather report)

Closest report is Montreal / Pierre Elliott Trudeau International Airport, 23.1 nm (42.8 km) NE. Retrieved 2019/05/20 23:00 UTC (55 minutes ago):

CYUL 202300Z 28011G25KT 30SM SCT055 BKN070 BKN100 BKN240 19/09 A2960 RMK SC3AC2AC1CI1 SLP026 DENSITY ALT 1100FT

TAF (pilot weather forecast)

Closest forecast is Montreal / Pierre Elliott Trudeau International Airport, 23.1 nm (42.8 km) NE. Retrieved 2019/05/20 21:42 UTC (2 hours ago):

TAF CYUL 202038Z 2021/2118 24020G30KT P6SM BKN040 TEMPO 2021/2022 P6SM -SHRA FM210000 27015G25KT P6SM OVC040 FM210200 30012G22KT P6SM OVC040 TEMPO 2102/2104 P6SM -SHRA FM210600 27015KT P6SM OVC030 BECMG 2113/2115 30020G30KT RMK NXT FCST BY 210000Z